createdAt,value
2018-04-18T00:00:40.126Z,96.32
2018-04-18T00:01:40.187Z,95.84
2018-04-18T00:02:40.262Z,95.56
2018-04-18T00:03:40.323Z,96.41
2018-04-18T00:04:40.691Z,96.51
2018-04-18T00:05:40.444Z,96.03
2018-04-18T00:06:40.509Z,96.41
2018-04-18T00:07:40.583Z,97.27
2018-04-18T00:08:40.635Z,97.08
2018-04-18T00:09:40.711Z,97.27
2018-04-18T00:10:40.770Z,96.41
2018-04-18T00:11:40.827Z,96.41
2018-04-18T00:12:40.891Z,96.61
2018-04-18T00:13:40.955Z,96.13
2018-04-18T00:14:41.027Z,96.22
2018-04-18T00:15:41.095Z,95.56
2018-04-18T00:16:41.147Z,95.94
2018-04-18T00:17:41.211Z,95.46
2018-04-18T00:18:41.276Z,94.41
2018-04-18T00:19:41.356Z,93.70
2018-04-18T00:20:41.404Z,94.37
2018-04-18T00:21:41.467Z,95.03
2018-04-18T00:22:41.531Z,93.93
2018-04-18T00:23:41.599Z,93.51
2018-04-18T00:24:41.668Z,94.46
2018-04-18T00:25:41.740Z,94.46
2018-04-18T00:26:41.788Z,95.12
2018-04-18T00:27:41.852Z,94.46
2018-04-18T00:28:41.920Z,94.65
2018-04-18T00:29:41.987Z,93.98
2018-04-18T00:30:42.052Z,94.27
2018-04-18T00:31:42.108Z,93.12
2018-04-18T00:32:42.172Z,93.12
2018-04-18T00:33:42.236Z,93.70
2018-04-18T00:35:08.324Z,93.79
2018-04-18T00:35:42.363Z,92.74
2018-04-18T00:36:42.428Z,93.12
2018-04-18T00:37:42.492Z,92.17
2018-04-18T00:38:42.556Z,93.03
2018-04-18T00:39:42.628Z,93.03
2018-04-18T00:40:42.692Z,93.22
2018-04-18T00:41:42.748Z,92.46
2018-04-18T00:42:42.813Z,92.08
2018-04-18T00:43:42.881Z,92.55
2018-04-18T00:44:42.945Z,93.12
2018-04-18T00:45:43.009Z,92.93
2018-04-18T00:46:43.065Z,93.03
2018-04-18T00:47:43.133Z,93.12
2018-04-18T00:48:43.197Z,92.93
2018-04-18T00:49:43.419Z,93.22
2018-04-18T00:50:43.321Z,93.41
2018-04-18T00:51:43.385Z,93.22
2018-04-18T00:52:43.449Z,92.84
2018-04-18T00:53:43.513Z,91.98
2018-04-18T00:54:43.585Z,91.79
2018-04-18T00:55:43.651Z,91.03
2018-04-18T00:56:43.706Z,91.69
2018-04-18T00:57:43.778Z,92.74
2018-04-18T00:58:43.842Z,91.41
2018-04-18T00:59:43.906Z,91.41
2018-04-18T01:00:43.966Z,91.31
2018-04-18T01:01:44.026Z,90.93
2018-04-18T01:02:44.089Z,91.31
2018-04-18T01:03:44.158Z,91.88
2018-04-18T01:04:44.233Z,91.41
2018-04-18T01:05:44.278Z,91.22
2018-04-18T01:06:44.343Z,91.03
2018-04-18T01:07:44.406Z,91.22
2018-04-18T01:08:44.471Z,91.31
2018-04-18T01:09:44.542Z,91.13
2018-04-18T01:10:44.606Z,91.79
2018-04-18T01:11:44.663Z,91.03
2018-04-18T01:12:44.730Z,92.65
2018-04-18T01:13:44.794Z,91.88
2018-04-18T01:14:44.870Z,92.55
2018-04-18T01:15:44.927Z,92.93
2018-04-18T01:16:44.987Z,91.98
2018-04-18T01:17:45.043Z,92.17
2018-04-18T01:18:45.106Z,91.98
2018-04-18T01:19:45.175Z,92.36
2018-04-18T01:20:45.538Z,91.60
2018-04-18T01:21:45.299Z,92.41
2018-04-18T01:22:45.363Z,91.88
2018-04-18T01:23:45.430Z,92.69
2018-04-18T01:24:45.490Z,92.17
2018-04-18T01:25:45.558Z,91.69
2018-04-18T01:26:45.659Z,91.98
2018-04-18T01:27:45.691Z,91.65
2018-04-18T01:28:45.751Z,92.22
2018-04-18T01:29:45.811Z,92.03
2018-04-18T01:30:45.879Z,92.03
2018-04-18T01:31:45.945Z,93.12
2018-04-18T01:32:45.999Z,93.08
2018-04-18T01:33:46.063Z,92.32
2018-04-18T01:34:46.128Z,92.98
2018-04-18T01:35:46.199Z,93.03
2018-04-18T01:36:46.267Z,93.74
2018-04-18T01:37:46.319Z,93.55
2018-04-18T01:38:46.383Z,94.22
2018-04-18T01:39:46.443Z,94.98
2018-04-18T01:40:46.515Z,95.36
2018-04-18T01:41:46.579Z,95.94
2018-04-18T01:42:46.643Z,96.60
2018-04-18T01:43:46.705Z,96.51
2018-04-18T01:44:46.775Z,95.36
2018-04-18T01:45:46.827Z,95.36
2018-04-18T01:46:46.897Z,94.98
2018-04-18T01:47:46.960Z,94.70
2018-04-18T01:48:47.023Z,94.60
2018-04-18T01:49:47.083Z,95.94
2018-04-18T01:50:47.154Z,96.41
2018-04-18T01:51:47.364Z,96.32
2018-04-18T01:52:47.272Z,95.75
2018-04-18T01:53:47.336Z,94.32
2018-04-18T01:54:47.400Z,94.41
2018-04-18T01:55:47.460Z,94.51
2018-04-18T01:56:47.540Z,95.08
2018-04-18T01:57:47.596Z,94.32
2018-04-18T01:58:47.660Z,93.65
2018-04-18T01:59:47.720Z,93.93
2018-04-18T02:00:47.780Z,95.17
2018-04-18T02:01:47.857Z,95.46
2018-04-18T02:02:47.912Z,95.79
2018-04-18T02:03:47.972Z,96.32
2018-04-18T02:04:48.033Z,95.70
2018-04-18T02:05:48.097Z,95.94
2018-04-18T02:06:48.320Z,96.12
2018-04-18T02:07:48.220Z,95.41
2018-04-18T02:08:48.284Z,95.03
2018-04-18T02:09:48.352Z,95.12
2018-04-18T02:10:48.416Z,95.70
2018-04-18T02:11:48.488Z,95.70
2018-04-18T02:12:48.544Z,95.03
2018-04-18T02:13:48.601Z,94.27
2018-04-18T02:14:48.668Z,95.32
2018-04-18T02:15:48.728Z,96.17
2018-04-18T02:16:48.800Z,97.22
2018-04-18T02:17:48.860Z,96.94
2018-04-18T02:18:48.924Z,97.22
2018-04-18T02:19:48.980Z,97.03
2018-04-18T02:20:49.044Z,97.70
2018-04-18T02:21:49.273Z,97.41
2018-04-18T02:22:49.172Z,97.89
2018-04-18T02:23:49.238Z,97.41
2018-04-18T02:24:49.308Z,97.89
2018-04-18T02:25:49.365Z,98.46
2018-04-18T02:26:49.432Z,98.46
2018-04-18T02:27:49.496Z,98.55
2018-04-18T02:28:49.552Z,98.08
2018-04-18T02:29:49.616Z,97.99
2018-04-18T02:30:49.681Z,98.18
2018-04-18T02:31:49.750Z,97.70
2018-04-18T02:32:49.812Z,97.70
2018-04-18T02:33:49.868Z,97.13
2018-04-18T02:34:49.932Z,97.79
2018-04-18T02:35:49.999Z,98.18
2018-04-18T02:36:50.065Z,97.60
2018-04-18T02:37:50.128Z,97.89
2018-04-18T02:38:50.185Z,98.55
2018-04-18T02:39:50.252Z,98.65
2018-04-18T02:40:50.313Z,99.03
2018-04-18T02:41:50.381Z,98.08
2018-04-18T02:42:50.444Z,97.89
2018-04-18T02:43:50.504Z,97.70
2018-04-18T02:44:50.564Z,98.55
2018-04-18T02:45:50.624Z,98.74
2018-04-18T02:46:50.696Z,99.03
2018-04-18T02:47:50.760Z,99.32
2018-04-18T02:48:50.816Z,99.79
2018-04-18T02:49:50.880Z,99.99
2018-04-18T02:50:50.944Z,99.99
2018-04-18T02:51:51.012Z,99.99
2018-04-18T02:52:51.076Z,99.99
2018-04-18T02:53:51.132Z,99.99
2018-04-18T02:54:51.198Z,99.99
2018-04-18T02:55:51.269Z,99.99
2018-04-18T02:56:51.328Z,99.99
2018-04-18T02:57:51.391Z,99.99
2018-04-18T02:58:51.447Z,99.99
2018-04-18T02:59:51.511Z,99.99
2018-04-18T03:00:51.572Z,99.99
2018-04-18T03:01:51.643Z,99.99
2018-04-18T03:02:51.708Z,99.99
2018-04-18T03:03:51.764Z,99.99
2018-04-18T03:04:51.831Z,99.99
2018-04-18T03:05:51.894Z,99.55
2018-04-18T03:06:51.963Z,99.84
2018-04-18T03:07:52.020Z,99.27
2018-04-18T03:08:52.080Z,99.46
2018-04-18T03:09:52.140Z,99.99
2018-04-18T03:10:52.208Z,99.99
2018-04-18T03:11:52.272Z,99.99
2018-04-18T03:12:52.345Z,99.99
2018-04-18T03:13:52.401Z,99.65
2018-04-18T03:14:52.456Z,99.99
2018-04-18T03:15:52.520Z,99.99
2018-04-18T03:16:52.584Z,99.84
2018-04-18T03:17:52.652Z,99.99
2018-04-18T03:18:52.716Z,99.84
2018-04-18T03:19:52.773Z,99.84
2018-04-18T03:20:52.836Z,99.74
2018-04-18T03:21:52.900Z,99.99
2018-04-18T03:22:52.969Z,99.65
2018-04-18T03:23:53.033Z,99.93
2018-04-18T03:24:53.089Z,99.99
2018-04-18T03:25:53.149Z,99.99
2018-04-18T03:26:53.213Z,99.99
2018-04-18T03:27:53.332Z,99.99
2018-04-18T03:28:53.341Z,99.99
2018-04-18T03:29:53.401Z,99.99
2018-04-18T03:30:53.466Z,99.99
2018-04-18T03:31:53.530Z,99.36
2018-04-18T03:32:53.603Z,99.93
2018-04-18T03:33:53.667Z,99.36
2018-04-18T03:34:53.719Z,99.99
2018-04-18T03:35:53.791Z,99.99
2018-04-18T03:36:53.847Z,99.99
2018-04-18T03:37:53.915Z,99.99
2018-04-18T03:38:53.978Z,99.99
2018-04-18T03:39:54.035Z,99.99
2018-04-18T03:40:54.099Z,99.99
2018-04-18T03:41:54.160Z,99.99
2018-04-18T03:42:54.351Z,99.99
2018-04-18T03:43:54.303Z,99.99
2018-04-18T03:44:54.354Z,99.99
2018-04-18T03:45:54.419Z,99.99
2018-04-18T03:46:54.488Z,99.99
2018-04-18T03:47:54.555Z,99.99
2018-04-18T03:48:54.619Z,99.99
2018-04-18T03:49:54.667Z,99.99
2018-04-18T03:50:54.731Z,99.99
2018-04-18T03:51:54.787Z,99.99
2018-04-18T03:52:54.858Z,99.99
2018-04-18T03:53:54.927Z,99.99
2018-04-18T03:54:54.979Z,99.99
2018-04-18T03:55:55.046Z,99.99
2018-04-18T03:56:55.098Z,99.99
2018-04-18T03:57:55.193Z,99.99
2018-04-18T03:58:55.230Z,99.99
2018-04-18T03:59:55.290Z,99.99
2018-04-18T04:00:55.358Z,99.99
2018-04-18T04:01:55.423Z,99.99
2018-04-18T04:02:55.483Z,99.99
2018-04-18T04:03:55.551Z,99.99
2018-04-18T04:04:55.606Z,99.99
2018-04-18T04:05:55.668Z,99.99
2018-04-18T04:06:55.731Z,99.99
2018-04-18T04:07:55.803Z,99.99
2018-04-18T04:08:55.879Z,99.99
2018-04-18T04:09:55.919Z,99.99
2018-04-18T04:10:55.983Z,99.99
2018-04-18T04:11:56.047Z,99.99
2018-04-18T04:12:56.363Z,99.99
2018-04-18T04:13:56.171Z,99.99
2018-04-18T04:14:56.235Z,99.99
2018-04-18T04:15:56.299Z,99.99
2018-04-18T04:16:56.363Z,99.99
2018-04-18T04:17:56.431Z,99.99
2018-04-18T04:18:56.499Z,99.99
2018-04-18T04:19:56.543Z,99.99
2018-04-18T04:20:56.611Z,99.99
2018-04-18T04:21:56.677Z,99.99
2018-04-18T04:22:56.743Z,99.99
2018-04-18T04:23:56.811Z,99.99
2018-04-18T04:24:56.871Z,99.99
2018-04-18T04:25:56.927Z,99.99
2018-04-18T04:26:56.988Z,99.99
2018-04-18T04:27:57.059Z,99.99
2018-04-18T04:28:57.123Z,99.99
2018-04-18T04:29:57.179Z,99.99
2018-04-18T04:30:57.239Z,99.99
2018-04-18T04:31:57.307Z,99.99
2018-04-18T04:32:57.395Z,99.99
2018-04-18T04:33:57.436Z,99.99
2018-04-18T04:34:57.496Z,99.99
2018-04-18T04:35:57.552Z,99.99
2018-04-18T04:36:57.640Z,99.99
2018-04-18T04:37:57.694Z,99.99
2018-04-18T04:38:57.760Z,99.99
2018-04-18T04:39:57.805Z,99.99
2018-04-18T04:40:57.869Z,99.99
2018-04-18T04:41:57.929Z,99.99
2018-04-18T04:42:58.001Z,99.99
2018-04-18T04:43:58.065Z,99.99
2018-04-18T04:44:58.159Z,99.99
2018-04-18T04:45:58.185Z,99.99
2018-04-18T04:46:58.245Z,99.99
2018-04-18T04:47:58.435Z,99.99
2018-04-18T04:48:58.376Z,99.99
2018-04-18T04:49:58.501Z,99.99
2018-04-18T04:50:58.754Z,99.99
2018-04-18T04:51:58.825Z,99.99
2018-04-18T04:52:58.839Z,99.99
2018-04-18T04:53:58.693Z,99.99
2018-04-18T04:54:58.809Z,99.99
2018-04-18T04:55:58.817Z,99.99
2018-04-18T04:56:58.874Z,99.99
2018-04-18T04:57:58.941Z,99.99
2018-04-18T04:58:59.279Z,99.99
2018-04-18T04:59:59.142Z,99.99
2018-04-18T05:00:59.122Z,99.99
2018-04-18T05:01:59.186Z,99.99
2018-04-18T05:02:59.266Z,99.99
2018-04-18T05:03:59.314Z,99.99
2018-04-18T05:04:59.378Z,99.99
2018-04-18T05:05:59.438Z,99.99
2018-04-18T05:06:59.502Z,99.99
2018-04-18T05:07:59.579Z,99.99
2018-04-18T05:08:59.634Z,99.99
2018-04-18T05:09:59.686Z,99.99
2018-04-18T05:10:59.750Z,99.99
2018-04-18T05:11:59.815Z,99.99
2018-04-18T05:12:59.882Z,99.99
2018-04-18T05:13:59.956Z,99.99
2018-04-18T05:15:00.007Z,99.99
2018-04-18T05:16:00.066Z,99.99
2018-04-18T05:17:00.127Z,99.99
2018-04-18T05:18:00.319Z,99.99
2018-04-18T05:19:00.250Z,99.99
2018-04-18T05:20:00.319Z,99.99
2018-04-18T05:21:00.383Z,99.99
2018-04-18T05:22:00.443Z,99.99
2018-04-18T05:23:00.511Z,99.99
2018-04-18T05:24:00.575Z,99.99
2018-04-18T05:25:00.631Z,99.99
2018-04-18T05:26:00.690Z,99.99
2018-04-18T05:27:00.762Z,99.99
2018-04-18T05:28:00.827Z,99.99
2018-04-18T05:29:00.887Z,99.99
2018-04-18T05:30:00.943Z,99.99
2018-04-18T05:31:01.007Z,99.99
2018-04-18T05:32:01.071Z,99.99
2018-04-18T05:33:01.252Z,99.99
2018-04-18T05:34:01.196Z,99.99
2018-04-18T05:35:01.259Z,99.99
2018-04-18T05:36:01.324Z,99.99
2018-04-18T05:37:01.384Z,99.99
2018-04-18T05:38:01.455Z,99.99
2018-04-18T05:39:01.516Z,99.94
2018-04-18T05:40:01.572Z,99.69
2018-04-18T05:41:01.636Z,99.79
2018-04-18T05:42:01.700Z,99.18
2018-04-18T05:43:01.768Z,98.60
2018-04-18T05:44:01.835Z,98.60
2018-04-18T05:45:01.888Z,97.65
2018-04-18T05:46:01.953Z,97.46
2018-04-18T05:47:02.016Z,97.08
2018-04-18T05:48:02.252Z,96.32
2018-04-18T05:49:02.140Z,96.41
2018-04-18T05:50:02.205Z,96.32
2018-04-18T05:51:02.336Z,96.70
2018-04-18T05:52:02.328Z,95.51
2018-04-18T05:53:02.408Z,94.93
2018-04-18T05:54:02.464Z,94.89
2018-04-18T05:55:02.521Z,94.46
2018-04-18T05:56:02.645Z,94.37
2018-04-18T05:57:02.645Z,93.70
2018-04-18T05:58:02.725Z,93.98
2018-04-18T05:59:02.780Z,94.37
2018-04-18T06:00:02.837Z,93.79
2018-04-18T06:01:02.920Z,92.74
2018-04-18T06:02:02.961Z,92.65
2018-04-18T06:03:03.035Z,92.27
2018-04-18T06:04:03.097Z,93.12
2018-04-18T06:05:03.154Z,92.12
2018-04-18T06:06:03.213Z,91.83
2018-04-18T06:07:03.277Z,91.46
2018-04-18T06:08:03.449Z,91.64
2018-04-18T06:09:03.405Z,91.46
2018-04-18T06:10:03.469Z,91.07
2018-04-18T06:11:03.529Z,91.27
2018-04-18T06:12:03.593Z,90.79
2018-04-18T06:13:03.667Z,89.54
2018-04-18T06:14:03.729Z,89.36
2018-04-18T06:15:03.785Z,89.54
2018-04-18T06:16:03.849Z,89.02
2018-04-18T06:17:03.913Z,89.83
2018-04-18T06:18:03.989Z,89.21
2018-04-18T06:19:04.047Z,89.21
2018-04-18T06:20:04.102Z,88.73
2018-04-18T06:21:04.166Z,88.64
2018-04-18T06:22:04.239Z,87.97
2018-04-18T06:23:04.422Z,87.21
2018-04-18T06:24:04.358Z,87.78
2018-04-18T06:25:04.422Z,87.49
2018-04-18T06:26:04.482Z,86.54
2018-04-18T06:27:04.546Z,86.10
2018-04-18T06:28:04.623Z,85.63
2018-04-18T06:29:04.682Z,85.05
2018-04-18T06:30:04.742Z,84.39
2018-04-18T06:31:04.802Z,83.72
2018-04-18T06:32:04.870Z,83.34
2018-04-18T06:33:04.934Z,82.76
2018-04-18T06:34:05.002Z,82.95
2018-04-18T06:35:05.054Z,83.00
2018-04-18T06:36:05.118Z,82.42
2018-04-18T06:37:05.184Z,82.14
2018-04-18T06:38:05.246Z,81.37
2018-04-18T06:39:05.332Z,81.18
2018-04-18T06:40:05.385Z,80.13
2018-04-18T06:41:05.438Z,79.46
2018-04-18T06:42:05.502Z,79.75
2018-04-18T06:43:05.566Z,78.83
2018-04-18T06:44:05.638Z,78.55
2018-04-18T06:45:05.702Z,78.45
2018-04-18T06:46:05.759Z,78.45
2018-04-18T06:47:05.825Z,78.74
2018-04-18T06:48:05.886Z,78.36
2018-04-18T06:49:05.954Z,78.93
2018-04-18T06:50:06.019Z,78.16
2018-04-18T06:51:06.079Z,78.26
2018-04-18T06:52:06.143Z,77.87
2018-04-18T06:53:06.207Z,78.30
2018-04-18T06:54:06.267Z,78.20
2018-04-18T06:55:06.367Z,78.30
2018-04-18T06:56:06.399Z,77.34
2018-04-18T06:57:06.465Z,77.34
2018-04-18T06:58:06.527Z,77.34
2018-04-18T06:59:06.595Z,76.10
2018-04-18T07:00:06.664Z,74.99
2018-04-18T07:01:06.728Z,75.27
2018-04-18T07:02:06.789Z,75.09
2018-04-18T07:03:06.853Z,74.55
2018-04-18T07:04:06.912Z,72.63
2018-04-18T07:05:06.984Z,70.50
2018-04-18T07:06:07.048Z,67.79
2018-04-18T07:07:07.104Z,64.98
2018-04-18T07:08:07.172Z,62.74
2018-04-18T07:09:07.241Z,60.85
2018-04-18T07:10:07.458Z,59.85
2018-04-18T07:11:07.392Z,58.24
2018-04-18T07:12:07.437Z,55.87
2018-04-18T07:13:07.501Z,55.22
2018-04-18T07:14:07.568Z,55.12
2018-04-18T07:15:07.641Z,53.80
2018-04-18T07:16:07.709Z,53.73
2018-04-18T07:17:07.774Z,52.59
2018-04-18T07:18:07.841Z,49.44
2018-04-18T07:19:07.909Z,49.34
2018-04-18T07:20:07.985Z,49.92
2018-04-18T07:21:08.057Z,48.69
2018-04-18T07:22:08.117Z,48.52
2018-04-18T07:23:08.189Z,46.68
2018-04-18T07:24:08.262Z,47.00
2018-04-18T07:25:08.330Z,46.42
2018-04-18T07:26:08.414Z,44.57
2018-04-18T07:27:08.473Z,44.09
2018-04-18T07:28:08.546Z,44.50
2018-04-18T07:29:08.617Z,43.95
2018-04-18T07:30:08.691Z,42.78
2018-04-18T07:31:08.769Z,42.10
2018-04-18T07:32:08.842Z,42.76
2018-04-18T07:33:08.907Z,42.49
2018-04-18T07:34:08.981Z,42.41
2018-04-18T07:35:09.053Z,43.17
2018-04-18T07:36:09.429Z,42.49
2018-04-18T07:37:09.202Z,42.59
2018-04-18T07:38:09.274Z,41.93
2018-04-18T07:39:09.349Z,42.13
2018-04-18T07:40:09.426Z,41.95
2018-04-18T07:41:09.518Z,41.08
2018-04-18T07:42:09.577Z,40.91
2018-04-18T07:43:09.646Z,40.54
2018-04-18T07:44:09.721Z,40.19
2018-04-18T07:45:09.798Z,38.34
2018-04-18T07:46:09.878Z,38.75
2018-04-18T07:47:09.954Z,38.27
2018-04-18T07:48:10.026Z,36.73
2018-04-18T07:49:10.102Z,37.02
2018-04-18T07:50:10.174Z,36.77
2018-04-18T07:51:10.487Z,34.94
2018-04-18T07:52:10.330Z,37.85
2018-04-18T07:53:10.409Z,36.20
2018-04-18T07:54:10.483Z,34.27
2018-04-18T07:55:10.559Z,33.78
2018-04-18T07:56:10.647Z,33.41
2018-04-18T07:57:10.723Z,33.31
2018-04-18T07:58:10.791Z,32.15
2018-04-18T07:59:10.871Z,31.56
2018-04-18T08:00:10.946Z,32.34
2018-04-18T08:01:11.035Z,32.82
2018-04-18T08:02:11.111Z,33.02
2018-04-18T08:03:11.183Z,31.85
2018-04-18T08:04:11.263Z,32.73
2018-04-18T08:05:11.348Z,32.15
2018-04-18T08:06:11.427Z,31.46
2018-04-18T08:07:11.507Z,31.46
2018-04-18T08:08:11.583Z,30.21
2018-04-18T08:09:11.666Z,31.09
2018-04-18T08:10:11.743Z,30.51
2018-04-18T08:11:11.831Z,30.70
2018-04-18T08:12:11.910Z,31.19
2018-04-18T08:13:11.988Z,29.92
2018-04-18T08:14:12.067Z,29.74
2018-04-18T08:15:12.195Z,30.42
2018-04-18T08:16:12.247Z,30.63
2018-04-18T08:17:12.320Z,31.01
2018-04-18T08:18:12.391Z,33.64
2018-04-18T08:19:12.473Z,33.53
2018-04-18T08:20:12.551Z,32.23
2018-04-18T08:21:12.639Z,32.32
2018-04-18T08:22:12.723Z,32.81
2018-04-18T08:23:12.795Z,33.38
2018-04-18T08:24:12.875Z,33.17
2018-04-18T08:25:12.960Z,33.56
2018-04-18T08:26:13.043Z,33.85
2018-04-18T08:27:13.124Z,33.64
2018-04-18T08:28:13.200Z,35.08
2018-04-18T08:29:13.284Z,34.69
2018-04-18T08:30:13.367Z,34.69
2018-04-18T08:31:13.448Z,34.88
2018-04-18T08:32:13.528Z,34.70
2018-04-18T08:33:13.604Z,36.32
2018-04-18T08:34:13.688Z,35.84
2018-04-18T08:35:13.764Z,36.93
2018-04-18T08:36:13.856Z,37.24
2018-04-18T08:37:13.932Z,36.59
2018-04-18T08:38:14.004Z,34.84
2018-04-18T08:39:14.091Z,33.58
2018-04-18T08:40:14.164Z,33.20
2018-04-18T08:41:14.395Z,33.96
2018-04-18T08:42:14.328Z,33.95
2018-04-18T08:43:14.408Z,33.93
2018-04-18T08:44:14.486Z,35.89
2018-04-18T08:45:14.567Z,36.10
2018-04-18T08:46:14.676Z,34.27
2018-04-18T08:47:14.736Z,34.86
2018-04-18T08:48:14.808Z,33.51
2018-04-18T08:49:14.888Z,33.20
2018-04-18T08:50:14.964Z,33.09
2018-04-18T08:51:15.054Z,33.67
2018-04-18T08:52:15.137Z,33.65
2018-04-18T08:53:15.208Z,35.02
2018-04-18T08:54:15.284Z,34.55
2018-04-18T08:55:15.365Z,34.95
2018-04-18T08:56:15.448Z,34.58
2018-04-18T08:57:15.534Z,32.62
2018-04-18T08:58:15.604Z,33.18
2018-04-18T08:59:15.688Z,34.95
2018-04-18T09:00:15.764Z,35.73
2018-04-18T09:01:15.851Z,35.55
2018-04-18T09:02:15.928Z,34.21
2018-04-18T09:03:15.999Z,32.75
2018-04-18T09:04:16.083Z,32.73
2018-04-18T09:05:16.161Z,32.71
2018-04-18T09:06:16.256Z,33.70
2018-04-18T09:07:16.319Z,32.73
2018-04-18T09:08:16.400Z,34.40
2018-04-18T09:09:16.480Z,33.83
2018-04-18T09:10:16.563Z,32.47
2018-04-18T09:11:16.643Z,32.75
2018-04-18T09:12:16.723Z,33.53
2018-04-18T09:13:16.796Z,32.35
2018-04-18T09:14:16.876Z,33.61
2018-04-18T09:15:16.956Z,34.69
2018-04-18T09:16:17.040Z,33.73
2018-04-18T09:17:17.120Z,33.53
2018-04-18T09:18:17.196Z,33.62
2018-04-18T09:19:17.269Z,33.92
2018-04-18T09:20:17.349Z,33.23
2018-04-18T09:21:17.448Z,32.06
2018-04-18T09:22:17.508Z,33.02
2018-04-18T09:23:17.589Z,34.79
2018-04-18T09:24:17.664Z,33.41
2018-04-18T09:25:17.744Z,33.90
2018-04-18T09:26:17.828Z,32.94
2018-04-18T09:27:17.912Z,32.73
2018-04-18T09:28:17.980Z,32.75
2018-04-18T09:29:18.060Z,33.25
2018-04-18T09:30:18.137Z,33.54
2018-04-18T09:31:18.248Z,34.63
2018-04-18T09:32:18.300Z,32.75
2018-04-18T09:33:18.375Z,33.61
2018-04-18T09:34:18.452Z,33.01
2018-04-18T09:35:18.528Z,34.19
2018-04-18T09:36:18.616Z,34.37
2018-04-18T09:37:18.692Z,33.58
2018-04-18T09:38:18.764Z,36.40
2018-04-18T09:39:18.846Z,34.17
2018-04-18T09:40:18.920Z,35.34
2018-04-18T09:41:19.004Z,35.63
2018-04-18T09:42:19.091Z,36.14
2018-04-18T09:43:19.157Z,35.65
2018-04-18T09:44:19.237Z,33.62
2018-04-18T09:45:19.308Z,33.31
2018-04-18T09:46:19.436Z,32.84
2018-04-18T09:47:19.465Z,33.53
2018-04-18T09:48:19.541Z,33.54
2018-04-18T09:49:19.622Z,32.48
2018-04-18T09:50:19.698Z,31.70
2018-04-18T09:51:19.782Z,31.60
2018-04-18T09:52:19.859Z,31.69
2018-04-18T09:53:19.930Z,32.87
2018-04-18T09:54:20.006Z,33.54
2018-04-18T09:55:20.082Z,33.25
2018-04-18T09:56:20.314Z,33.46
2018-04-18T09:57:20.238Z,33.95
2018-04-18T09:58:20.325Z,35.31
2018-04-18T09:59:20.389Z,33.67
2018-04-18T10:00:20.469Z,33.46
2018-04-18T10:01:20.554Z,33.46
2018-04-18T10:02:20.630Z,32.18
2018-04-18T10:03:20.698Z,32.75
2018-04-18T10:04:20.778Z,33.41
2018-04-18T10:05:20.854Z,33.41
2018-04-18T10:06:20.939Z,33.22
2018-04-18T10:07:21.014Z,34.19
2018-04-18T10:08:21.082Z,34.97
2018-04-18T10:09:21.162Z,34.48
2018-04-18T10:10:21.282Z,33.69
2018-04-18T10:11:21.326Z,34.86
2018-04-18T10:12:21.392Z,34.58
2018-04-18T10:13:21.467Z,34.31
2018-04-18T10:14:21.543Z,35.18
2018-04-18T10:15:21.618Z,35.28
2018-04-18T10:16:21.702Z,34.59
2018-04-18T10:17:21.778Z,35.16
2018-04-18T10:18:21.847Z,35.06
2018-04-18T10:19:21.922Z,35.86
2018-04-18T10:20:21.999Z,35.96
2018-04-18T10:21:22.191Z,33.92
2018-04-18T10:22:22.151Z,34.31
2018-04-18T10:23:22.226Z,35.06
2018-04-18T10:24:22.311Z,37.23
2018-04-18T10:25:22.383Z,35.63
2018-04-18T10:26:22.459Z,36.12
2018-04-18T10:27:22.535Z,34.37
2018-04-18T10:28:22.607Z,35.44
2018-04-18T10:29:22.679Z,36.12
2018-04-18T10:30:22.755Z,35.75
2018-04-18T10:31:22.839Z,34.58
2018-04-18T10:32:22.915Z,35.16
2018-04-18T10:33:22.983Z,37.41
2018-04-18T10:34:23.055Z,35.46
2018-04-18T10:35:23.131Z,34.58
2018-04-18T10:36:23.232Z,34.48
2018-04-18T10:37:23.282Z,36.63
2018-04-18T10:38:23.363Z,36.53
2018-04-18T10:39:23.431Z,35.94
2018-04-18T10:40:23.519Z,35.34
2018-04-18T10:41:23.590Z,36.04
2018-04-18T10:42:23.663Z,35.44
2018-04-18T10:43:23.749Z,35.63
2018-04-18T10:44:23.807Z,36.51
2018-04-18T10:45:23.882Z,35.83
2018-04-18T10:46:23.963Z,36.30
2018-04-18T10:47:24.039Z,36.59
2018-04-18T10:48:24.107Z,37.27
2018-04-18T10:49:24.183Z,37.27
2018-04-18T10:50:24.255Z,35.81
2018-04-18T10:51:24.435Z,35.61
2018-04-18T10:52:24.407Z,35.53
2018-04-18T10:53:24.480Z,35.63
2018-04-18T10:54:24.552Z,37.10
2018-04-18T10:55:24.630Z,36.32
2018-04-18T10:56:24.722Z,36.41
2018-04-18T10:57:24.788Z,35.05
2018-04-18T10:58:24.852Z,36.41
2018-04-18T10:59:24.928Z,36.61
2018-04-18T11:00:25.005Z,34.35
2018-04-18T11:01:25.096Z,33.56
2018-04-18T11:02:25.149Z,34.82
2018-04-18T11:03:25.224Z,35.50
2018-04-18T11:04:25.333Z,34.64
2018-04-18T11:05:25.377Z,35.13
2018-04-18T11:06:25.453Z,35.21
2018-04-18T11:07:25.537Z,34.82
2018-04-18T11:08:25.597Z,34.70
2018-04-18T11:09:25.698Z,35.11
2018-04-18T11:10:25.745Z,35.31
2018-04-18T11:11:25.833Z,34.25
2018-04-18T11:12:25.901Z,35.70
2018-04-18T11:13:25.965Z,34.80
2018-04-18T11:14:26.041Z,35.78
2018-04-18T11:15:26.117Z,35.66
2018-04-18T11:16:26.513Z,35.47
2018-04-18T11:17:26.260Z,37.99
2018-04-18T11:18:26.337Z,35.39
2018-04-18T11:19:26.409Z,36.26
2018-04-18T11:20:26.485Z,37.24
2018-04-18T11:21:26.573Z,38.03
2018-04-18T11:22:26.637Z,36.07
2018-04-18T11:23:26.705Z,35.89
2018-04-18T11:24:26.786Z,35.21
2018-04-18T11:25:26.859Z,34.72
2018-04-18T11:26:26.937Z,36.18
2018-04-18T11:27:27.012Z,35.02
2018-04-18T11:28:27.073Z,33.46
2018-04-18T11:29:27.145Z,33.65
2018-04-18T11:30:27.228Z,35.41
2018-04-18T11:31:27.454Z,33.75
2018-04-18T11:32:27.373Z,33.44
2018-04-18T11:33:27.451Z,34.52
2018-04-18T11:34:27.518Z,33.93
2018-04-18T11:35:27.590Z,33.53
2018-04-18T11:36:27.740Z,33.72
2018-04-18T11:37:27.750Z,36.83
2018-04-18T11:38:27.814Z,36.65
2018-04-18T11:39:27.887Z,35.19
2018-04-18T11:40:27.970Z,35.39
2018-04-18T11:41:28.043Z,34.24
2018-04-18T11:42:28.123Z,33.85
2018-04-18T11:43:28.187Z,33.56
2018-04-18T11:44:28.263Z,34.84
2018-04-18T11:45:28.387Z,34.64
2018-04-18T11:46:28.431Z,34.35
2018-04-18T11:47:28.488Z,33.20
2018-04-18T11:48:28.547Z,33.88
2018-04-18T11:49:28.623Z,32.89
2018-04-18T11:50:28.715Z,32.79
2018-04-18T11:51:28.799Z,32.42
2018-04-18T11:52:28.895Z,32.11
2018-04-18T11:53:28.935Z,31.53
2018-04-18T11:54:29.015Z,32.68
2018-04-18T11:55:29.067Z,32.20
2018-04-18T11:56:29.447Z,32.78
2018-04-18T11:57:29.228Z,32.10
2018-04-18T11:58:29.286Z,32.70
2018-04-18T11:59:29.363Z,32.02
2018-04-18T12:00:29.435Z,32.60
2018-04-18T12:01:29.515Z,32.11
2018-04-18T12:02:29.603Z,32.23
2018-04-18T12:03:29.659Z,31.93
2018-04-18T12:04:29.731Z,31.06
2018-04-18T12:05:29.809Z,29.99
2018-04-18T12:06:29.884Z,29.50
2018-04-18T12:07:29.964Z,30.28
2018-04-18T12:08:30.028Z,30.08
2018-04-18T12:09:30.104Z,30.17
2018-04-18T12:10:30.172Z,30.87
2018-04-18T12:11:30.362Z,29.52
2018-04-18T12:12:30.324Z,29.22
2018-04-18T12:13:30.400Z,29.91
2018-04-18T12:14:30.469Z,30.29
2018-04-18T12:15:30.544Z,29.13
2018-04-18T12:16:30.625Z,29.82
2018-04-18T12:17:30.696Z,27.78
2018-04-18T12:18:30.764Z,28.44
2018-04-18T12:19:30.836Z,29.14
2018-04-18T12:20:30.913Z,27.68
2018-04-18T12:21:30.992Z,30.02
2018-04-18T12:22:31.064Z,30.71
2018-04-18T12:23:31.132Z,27.58
2018-04-18T12:24:31.208Z,27.29
2018-04-18T12:25:31.280Z,27.68
2018-04-18T12:26:31.356Z,28.26
2018-04-18T12:27:31.580Z,29.04
2018-04-18T12:28:31.504Z,29.42
2018-04-18T12:29:31.575Z,27.08
2018-04-18T12:30:31.652Z,26.31
2018-04-18T12:31:31.724Z,27.97
2018-04-18T12:32:31.808Z,28.07
2018-04-18T12:33:31.879Z,27.48
2018-04-18T12:34:31.947Z,28.65
2018-04-18T12:35:32.020Z,27.56
2018-04-18T12:36:32.097Z,28.94
2018-04-18T12:37:32.185Z,27.47
2018-04-18T12:38:32.244Z,26.50
2018-04-18T12:39:32.320Z,27.39
2018-04-18T12:40:32.393Z,27.19
2018-04-18T12:41:32.468Z,27.19
2018-04-18T12:42:32.549Z,26.59
2018-04-18T12:43:32.620Z,26.20
2018-04-18T12:44:32.689Z,27.95
2018-04-18T12:45:32.764Z,27.68
2018-04-18T12:46:32.837Z,29.14
2018-04-18T12:47:32.919Z,27.78
2018-04-18T12:48:32.996Z,28.75
2018-04-18T12:49:33.060Z,28.28
2018-04-18T12:50:33.132Z,27.20
2018-04-18T12:51:33.208Z,25.93
2018-04-18T12:52:33.280Z,26.70
2018-04-18T12:53:33.620Z,27.18